sensor_id;sensor_type;location;lat;lon;timestamp;temperature;humidity
67769;DHT22;54569;52.018;5.584;2023-12-22T00:02:20;7.20;99.90
67769;DHT22;54569;52.018;5.584;2023-12-22T00:04:46;7.30;99.90
67769;DHT22;54569;52.018;5.584;2023-12-22T00:07:12;7.20;99.90
67769;DHT22;54569;52.018;5.584;2023-12-22T00:09:38;7.20;99.90
67769;DHT22;54569;52.018;5.584;2023-12-22T00:12:04;7.20;99.90
67769;DHT22;54569;52.018;5.584;2023-12-22T00:14:30;7.20;99.90
67769;DHT22;54569;52.018;5.584;2023-12-22T00:16:55;7.20;99.90
67769;DHT22;54569;52.018;5.584;2023-12-22T00:19:21;7.20;99.90
67769;DHT22;54569;52.018;5.584;2023-12-22T00:21:47;7.30;99.90
67769;DHT22;54569;52.018;5.584;2023-12-22T00:24:12;7.30;99.90
67769;DHT22;54569;52.018;5.584;2023-12-22T00:26:38;7.30;99.90
67769;DHT22;54569;52.018;5.584;2023-12-22T00:29:04;7.30;99.90
67769;DHT22;54569;52.018;5.584;2023-12-22T00:31:29;7.20;99.90
67769;DHT22;54569;52.018;5.584;2023-12-22T00:33:55;7.10;99.90
67769;DHT22;54569;52.018;5.584;2023-12-22T00:36:21;7.10;99.90
67769;DHT22;54569;52.018;5.584;2023-12-22T00:38:50;7.00;99.90
67769;DHT22;54569;52.018;5.584;2023-12-22T00:41:16;7.00;99.90
67769;DHT22;54569;52.018;5.584;2023-12-22T00:43:41;6.90;99.90
67769;DHT22;54569;52.018;5.584;2023-12-22T00:46:07;6.90;99.90
67769;DHT22;54569;52.018;5.584;2023-12-22T00:48:33;6.90;99.90
67769;DHT22;54569;52.018;5.584;2023-12-22T00:50:58;6.80;99.90
67769;DHT22;54569;52.018;5.584;2023-12-22T00:53:24;6.80;99.90
67769;DHT22;54569;52.018;5.584;2023-12-22T00:55:50;6.80;99.90
67769;DHT22;54569;52.018;5.584;2023-12-22T00:58:15;6.70;99.90
67769;DHT22;54569;52.018;5.584;2023-12-22T01:00:41;6.70;99.90
67769;DHT22;54569;52.018;5.584;2023-12-22T01:03:07;6.70;99.90
67769;DHT22;54569;52.018;5.584;2023-12-22T01:05:33;6.70;99.90
67769;DHT22;54569;52.018;5.584;2023-12-22T01:07:58;6.70;99.90
67769;DHT22;54569;52.018;5.584;2023-12-22T01:10:24;6.70;99.90
67769;DHT22;54569;52.018;5.584;2023-12-22T01:12:50;6.60;99.90
67769;DHT22;54569;52.018;5.584;2023-12-22T01:15:15;6.60;99.90
67769;DHT22;54569;52.018;5.584;2023-12-22T01:17:41;6.60;99.90
67769;DHT22;54569;52.018;5.584;2023-12-22T01:20:07;6.60;99.90
67769;DHT22;54569;52.018;5.584;2023-12-22T01:22:33;6.60;99.90
67769;DHT22;54569;52.018;5.584;2023-12-22T01:25:00;6.60;99.90
67769;DHT22;54569;52.018;5.584;2023-12-22T01:27:26;6.60;99.90
67769;DHT22;54569;52.018;5.584;2023-12-22T01:29:52;6.60;99.90
67769;DHT22;54569;52.018;5.584;2023-12-22T01:32:18;6.60;99.90
67769;DHT22;54569;52.018;5.584;2023-12-22T01:34:44;6.60;99.90
67769;DHT22;54569;52.018;5.584;2023-12-22T01:37:10;6.60;99.90
67769;DHT22;54569;52.018;5.584;2023-12-22T01:39:36;6.60;99.90
67769;DHT22;54569;52.018;5.584;2023-12-22T01:42:02;6.60;99.90
67769;DHT22;54569;52.018;5.584;2023-12-22T01:44:27;6.60;99.90
67769;DHT22;54569;52.018;5.584;2023-12-22T01:46:53;6.60;99.90
67769;DHT22;54569;52.018;5.584;2023-12-22T01:49:20;6.60;99.90
67769;DHT22;54569;52.018;5.584;2023-12-22T01:51:47;6.60;99.90
67769;DHT22;54569;52.018;5.584;2023-12-22T01:54:14;6.60;99.90
67769;DHT22;54569;52.018;5.584;2023-12-22T01:56:41;6.60;99.90
67769;DHT22;54569;52.018;5.584;2023-12-22T01:59:08;6.60;99.90
67769;DHT22;54569;52.018;5.584;2023-12-22T02:01:34;6.50;99.90
67769;DHT22;54569;52.018;5.584;2023-12-22T02:04:01;6.50;99.90
67769;DHT22;54569;52.018;5.584;2023-12-22T02:06:30;6.40;99.90
67769;DHT22;54569;52.018;5.584;2023-12-22T02:08:57;6.40;99.90
67769;DHT22;54569;52.018;5.584;2023-12-22T02:11:23;6.50;99.90
67769;DHT22;54569;52.018;5.584;2023-12-22T02:13:49;6.50;99.90
67769;DHT22;54569;52.018;5.584;2023-12-22T02:17:02;6.50;99.90
67769;DHT22;54569;52.018;5.584;2023-12-22T02:22:02;6.60;99.90
67769;DHT22;54569;52.018;5.584;2023-12-22T02:24:29;6.60;99.90
67769;DHT22;54569;52.018;5.584;2023-12-22T02:27:02;6.60;99.90
67769;DHT22;54569;52.018;5.584;2023-12-22T02:29:31;6.60;99.90
67769;DHT22;54569;52.018;5.584;2023-12-22T02:32:03;6.60;99.90
67769;DHT22;54569;52.018;5.584;2023-12-22T02:34:35;6.60;99.90
67769;DHT22;54569;52.018;5.584;2023-12-22T02:37:04;6.60;99.90
67769;DHT22;54569;52.018;5.584;2023-12-22T02:39:31;6.50;99.90
67769;DHT22;54569;52.018;5.584;2023-12-22T02:41:56;6.50;99.90
67769;DHT22;54569;52.018;5.584;2023-12-22T02:44:23;6.40;99.90
67769;DHT22;54569;52.018;5.584;2023-12-22T02:46:49;6.40;99.90
67769;DHT22;54569;52.018;5.584;2023-12-22T02:49:15;6.50;99.90
67769;DHT22;54569;52.018;5.584;2023-12-22T02:51:40;6.50;99.90
67769;DHT22;54569;52.018;5.584;2023-12-22T02:54:06;6.50;99.90
67769;DHT22;54569;52.018;5.584;2023-12-22T02:56:32;6.50;99.90
67769;DHT22;54569;52.018;5.584;2023-12-22T02:58:57;6.50;99.90
67769;DHT22;54569;52.018;5.584;2023-12-22T03:01:23;6.50;99.90
67769;DHT22;54569;52.018;5.584;2023-12-22T03:03:49;6.50;99.90
67769;DHT22;54569;52.018;5.584;2023-12-22T03:06:15;6.50;99.90
67769;DHT22;54569;52.018;5.584;2023-12-22T03:08:40;6.60;99.90
67769;DHT22;54569;52.018;5.584;2023-12-22T03:11:06;6.60;99.90
67769;DHT22;54569;52.018;5.584;2023-12-22T03:13:32;6.70;99.90
67769;DHT22;54569;52.018;5.584;2023-12-22T03:15:58;6.70;99.90
67769;DHT22;54569;52.018;5.584;2023-12-22T03:18:23;6.80;99.90
67769;DHT22;54569;52.018;5.584;2023-12-22T03:20:49;6.80;99.90
67769;DHT22;54569;52.018;5.584;2023-12-22T03:23:15;6.90;99.90
67769;DHT22;54569;52.018;5.584;2023-12-22T03:25:40;6.90;99.90
67769;DHT22;54569;52.018;5.584;2023-12-22T03:28:06;7.00;99.90
67769;DHT22;54569;52.018;5.584;2023-12-22T03:30:32;7.00;99.90
67769;DHT22;54569;52.018;5.584;2023-12-22T03:32:58;7.10;99.90
67769;DHT22;54569;52.018;5.584;2023-12-22T03:35:24;7.20;99.90
67769;DHT22;54569;52.018;5.584;2023-12-22T03:37:49;7.20;99.90
67769;DHT22;54569;52.018;5.584;2023-12-22T03:40:15;7.30;99.90
67769;DHT22;54569;52.018;5.584;2023-12-22T03:42:41;7.30;99.90
67769;DHT22;54569;52.018;5.584;2023-12-22T03:45:07;7.40;99.90
67769;DHT22;54569;52.018;5.584;2023-12-22T03:47:32;7.40;99.90
67769;DHT22;54569;52.018;5.584;2023-12-22T03:49:58;7.40;99.90
67769;DHT22;54569;52.018;5.584;2023-12-22T03:52:24;7.50;99.90
67769;DHT22;54569;52.018;5.584;2023-12-22T03:54:49;7.50;99.90
67769;DHT22;54569;52.018;5.584;2023-12-22T03:57:15;7.50;99.90
67769;DHT22;54569;52.018;5.584;2023-12-22T03:59:41;7.50;99.90
67769;DHT22;54569;52.018;5.584;2023-12-22T04:02:09;7.50;99.90
67769;DHT22;54569;52.018;5.584;2023-12-22T04:04:38;7.30;99.90
67769;DHT22;54569;52.018;5.584;2023-12-22T04:07:03;7.20;99.90
67769;DHT22;54569;52.018;5.584;2023-12-22T04:09:29;7.10;99.90
67769;DHT22;54569;52.018;5.584;2023-12-22T04:11:55;7.00;99.90
67769;DHT22;54569;52.018;5.584;2023-12-22T04:14:20;6.90;99.90
67769;DHT22;54569;52.018;5.584;2023-12-22T04:16:46;6.90;99.90
67769;DHT22;54569;52.018;5.584;2023-12-22T04:19:12;6.90;99.90
67769;DHT22;54569;52.018;5.584;2023-12-22T04:21:38;6.80;99.90
67769;DHT22;54569;52.018;5.584;2023-12-22T04:24:04;6.80;99.90
67769;DHT22;54569;52.018;5.584;2023-12-22T04:26:30;6.80;99.90
67769;DHT22;54569;52.018;5.584;2023-12-22T04:28:56;6.80;99.90
67769;DHT22;54569;52.018;5.584;2023-12-22T04:31:21;6.80;99.90
67769;DHT22;54569;52.018;5.584;2023-12-22T04:33:47;6.80;99.90
67769;DHT22;54569;52.018;5.584;2023-12-22T04:36:13;6.70;99.90
67769;DHT22;54569;52.018;5.584;2023-12-22T04:38:39;6.70;99.90
67769;DHT22;54569;52.018;5.584;2023-12-22T04:41:06;6.70;99.90
67769;DHT22;54569;52.018;5.584;2023-12-22T04:43:32;6.70;99.90
67769;DHT22;54569;52.018;5.584;2023-12-22T04:45:57;6.70;99.90
67769;DHT22;54569;52.018;5.584;2023-12-22T04:48:23;6.70;99.90
67769;DHT22;54569;52.018;5.584;2023-12-22T04:50:49;6.70;99.90
67769;DHT22;54569;52.018;5.584;2023-12-22T04:53:14;6.60;99.90
67769;DHT22;54569;52.018;5.584;2023-12-22T04:55:40;6.60;99.90
67769;DHT22;54569;52.018;5.584;2023-12-22T04:58:06;6.60;99.90
67769;DHT22;54569;52.018;5.584;2023-12-22T05:00:31;6.60;99.90
67769;DHT22;54569;52.018;5.584;2023-12-22T05:02:57;6.60;99.90
67769;DHT22;54569;52.018;5.584;2023-12-22T05:05:23;6.60;99.90
67769;DHT22;54569;52.018;5.584;2023-12-22T05:07:48;6.60;99.90
67769;DHT22;54569;52.018;5.584;2023-12-22T05:10:14;6.60;99.90
67769;DHT22;54569;52.018;5.584;2023-12-22T05:12:40;6.70;99.90
67769;DHT22;54569;52.018;5.584;2023-12-22T05:15:06;6.70;99.90
67769;DHT22;54569;52.018;5.584;2023-12-22T05:17:32;6.80;99.90
67769;DHT22;54569;52.018;5.584;2023-12-22T05:19:58;6.80;99.90
67769;DHT22;54569;52.018;5.584;2023-12-22T05:22:24;6.80;99.90
67769;DHT22;54569;52.018;5.584;2023-12-22T05:24:50;6.80;99.90
67769;DHT22;54569;52.018;5.584;2023-12-22T05:27:15;6.90;99.90
67769;DHT22;54569;52.018;5.584;2023-12-22T05:29:41;6.90;99.90
67769;DHT22;54569;52.018;5.584;2023-12-22T05:32:07;7.00;99.90
67769;DHT22;54569;52.018;5.584;2023-12-22T05:34:32;7.00;99.90
67769;DHT22;54569;52.018;5.584;2023-12-22T05:36:58;7.10;99.90
67769;DHT22;54569;52.018;5.584;2023-12-22T05:39:24;7.20;99.90
67769;DHT22;54569;52.018;5.584;2023-12-22T05:41:50;7.20;99.90
67769;DHT22;54569;52.018;5.584;2023-12-22T05:44:15;7.30;99.90
67769;DHT22;54569;52.018;5.584;2023-12-22T05:46:41;7.40;99.90
67769;DHT22;54569;52.018;5.584;2023-12-22T05:49:07;7.50;99.90
67769;DHT22;54569;52.018;5.584;2023-12-22T05:51:39;7.50;99.90
67769;DHT22;54569;52.018;5.584;2023-12-22T05:54:08;7.60;99.90
67769;DHT22;54569;52.018;5.584;2023-12-22T05:56:35;7.60;99.90
67769;DHT22;54569;52.018;5.584;2023-12-22T05:59:01;7.60;99.90
67769;DHT22;54569;52.018;5.584;2023-12-22T06:01:27;7.70;99.90
67769;DHT22;54569;52.018;5.584;2023-12-22T06:03:52;7.80;99.90
67769;DHT22;54569;52.018;5.584;2023-12-22T06:06:19;7.80;99.90
67769;DHT22;54569;52.018;5.584;2023-12-22T06:08:45;7.80;99.90
67769;DHT22;54569;52.018;5.584;2023-12-22T06:11:10;7.90;99.90
67769;DHT22;54569;52.018;5.584;2023-12-22T06:13:37;7.90;99.90
67769;DHT22;54569;52.018;5.584;2023-12-22T06:16:02;7.90;99.90
67769;DHT22;54569;52.018;5.584;2023-12-22T06:18:28;7.90;99.90
67769;DHT22;54569;52.018;5.584;2023-12-22T06:20:54;8.00;99.90
67769;DHT22;54569;52.018;5.584;2023-12-22T06:23:20;8.00;99.90
67769;DHT22;54569;52.018;5.584;2023-12-22T06:25:45;8.10;99.90
67769;DHT22;54569;52.018;5.584;2023-12-22T06:28:12;8.10;99.90
67769;DHT22;54569;52.018;5.584;2023-12-22T06:30:38;8.20;99.90
67769;DHT22;54569;52.018;5.584;2023-12-22T06:33:04;8.20;99.90
67769;DHT22;54569;52.018;5.584;2023-12-22T06:35:29;8.20;99.90
67769;DHT22;54569;52.018;5.584;2023-12-22T06:37:57;8.30;99.90
67769;DHT22;54569;52.018;5.584;2023-12-22T06:40:26;8.30;99.90
67769;DHT22;54569;52.018;5.584;2023-12-22T06:42:52;8.30;99.90
67769;DHT22;54569;52.018;5.584;2023-12-22T06:45:18;8.30;99.90
67769;DHT22;54569;52.018;5.584;2023-12-22T06:47:43;8.30;99.90
67769;DHT22;54569;52.018;5.584;2023-12-22T06:50:09;8.40;99.90
67769;DHT22;54569;52.018;5.584;2023-12-22T06:52:35;8.40;99.90
67769;DHT22;54569;52.018;5.584;2023-12-22T06:55:01;8.40;99.90
67769;DHT22;54569;52.018;5.584;2023-12-22T06:57:26;8.40;99.90
67769;DHT22;54569;52.018;5.584;2023-12-22T06:59:52;8.50;99.90
67769;DHT22;54569;52.018;5.584;2023-12-22T07:02:18;8.50;99.90
67769;DHT22;54569;52.018;5.584;2023-12-22T07:07:36;8.50;99.90
67769;DHT22;54569;52.018;5.584;2023-12-22T07:10:02;8.50;99.90
67769;DHT22;54569;52.018;5.584;2023-12-22T07:12:28;8.60;99.90
67769;DHT22;54569;52.018;5.584;2023-12-22T07:14:53;8.60;99.90
67769;DHT22;54569;52.018;5.584;2023-12-22T07:17:19;8.60;99.90
67769;DHT22;54569;52.018;5.584;2023-12-22T07:19:45;8.60;99.90
67769;DHT22;54569;52.018;5.584;2023-12-22T07:22:11;8.60;99.90
67769;DHT22;54569;52.018;5.584;2023-12-22T07:24:36;8.70;99.90
67769;DHT22;54569;52.018;5.584;2023-12-22T07:27:02;8.70;99.90
67769;DHT22;54569;52.018;5.584;2023-12-22T07:29:28;8.70;99.90
67769;DHT22;54569;52.018;5.584;2023-12-22T07:31:54;8.70;99.90
67769;DHT22;54569;52.018;5.584;2023-12-22T07:34:20;8.70;99.90
67769;DHT22;54569;52.018;5.584;2023-12-22T07:36:48;8.70;99.90
67769;DHT22;54569;52.018;5.584;2023-12-22T07:39:13;8.80;99.90
67769;DHT22;54569;52.018;5.584;2023-12-22T07:41:40;8.80;99.90
67769;DHT22;54569;52.018;5.584;2023-12-22T07:44:06;8.80;99.90
67769;DHT22;54569;52.018;5.584;2023-12-22T07:46:31;8.80;99.90
67769;DHT22;54569;52.018;5.584;2023-12-22T07:48:57;8.80;99.90
67769;DHT22;54569;52.018;5.584;2023-12-22T07:51:23;8.80;99.90
67769;DHT22;54569;52.018;5.584;2023-12-22T07:53:48;8.80;99.90
67769;DHT22;54569;52.018;5.584;2023-12-22T07:56:14;8.90;99.90
67769;DHT22;54569;52.018;5.584;2023-12-22T07:58:40;8.90;99.90
67769;DHT22;54569;52.018;5.584;2023-12-22T08:01:06;8.90;99.90
67769;DHT22;54569;52.018;5.584;2023-12-22T08:03:32;8.90;99.90
67769;DHT22;54569;52.018;5.584;2023-12-22T08:05:58;8.80;99.90
67769;DHT22;54569;52.018;5.584;2023-12-22T08:08:24;8.80;99.90
67769;DHT22;54569;52.018;5.584;2023-12-22T08:10:50;8.80;99.90
67769;DHT22;54569;52.018;5.584;2023-12-22T08:13:15;8.70;99.90
67769;DHT22;54569;52.018;5.584;2023-12-22T08:15:43;8.70;99.90
67769;DHT22;54569;52.018;5.584;2023-12-22T08:18:09;8.70;99.90
67769;DHT22;54569;52.018;5.584;2023-12-22T08:20:35;8.70;99.90
67769;DHT22;54569;52.018;5.584;2023-12-22T08:23:01;8.70;99.90
67769;DHT22;54569;52.018;5.584;2023-12-22T08:25:26;8.60;99.90
67769;DHT22;54569;52.018;5.584;2023-12-22T08:27:52;8.60;99.90
67769;DHT22;54569;52.018;5.584;2023-12-22T08:30:18;8.60;99.90
67769;DHT22;54569;52.018;5.584;2023-12-22T08:32:43;8.60;99.90
67769;DHT22;54569;52.018;5.584;2023-12-22T08:35:09;8.60;99.90
67769;DHT22;54569;52.018;5.584;2023-12-22T08:37:35;8.60;99.90
67769;DHT22;54569;52.018;5.584;2023-12-22T08:40:02;8.60;99.90
67769;DHT22;54569;52.018;5.584;2023-12-22T08:42:29;8.70;99.90
67769;DHT22;54569;52.018;5.584;2023-12-22T08:44:56;8.70;99.90
67769;DHT22;54569;52.018;5.584;2023-12-22T08:47:21;8.70;99.90
67769;DHT22;54569;52.018;5.584;2023-12-22T08:49:47;8.70;99.90
67769;DHT22;54569;52.018;5.584;2023-12-22T08:52:13;8.60;99.90
67769;DHT22;54569;52.018;5.584;2023-12-22T08:54:39;8.70;99.90
67769;DHT22;54569;52.018;5.584;2023-12-22T08:57:05;8.70;99.90
67769;DHT22;54569;52.018;5.584;2023-12-22T08:59:30;8.70;99.90
67769;DHT22;54569;52.018;5.584;2023-12-22T09:01:56;8.70;99.90
67769;DHT22;54569;52.018;5.584;2023-12-22T09:04:22;8.70;99.90
67769;DHT22;54569;52.018;5.584;2023-12-22T09:06:51;8.70;99.90
67769;DHT22;54569;52.018;5.584;2023-12-22T09:09:17;8.70;99.90
67769;DHT22;54569;52.018;5.584;2023-12-22T09:11:43;8.70;99.90
67769;DHT22;54569;52.018;5.584;2023-12-22T09:14:10;8.70;99.90
67769;DHT22;54569;52.018;5.584;2023-12-22T09:16:36;8.80;99.90
67769;DHT22;54569;52.018;5.584;2023-12-22T09:19:03;8.80;99.90
67769;DHT22;54569;52.018;5.584;2023-12-22T09:21:28;8.90;99.90
67769;DHT22;54569;52.018;5.584;2023-12-22T09:23:54;8.90;99.90
67769;DHT22;54569;52.018;5.584;2023-12-22T09:26:20;8.90;99.90
67769;DHT22;54569;52.018;5.584;2023-12-22T09:28:46;8.90;99.90
67769;DHT22;54569;52.018;5.584;2023-12-22T09:31:13;9.00;99.90
67769;DHT22;54569;52.018;5.584;2023-12-22T09:33:39;9.00;99.90
67769;DHT22;54569;52.018;5.584;2023-12-22T09:36:05;8.90;99.90
67769;DHT22;54569;52.018;5.584;2023-12-22T09:38:31;8.90;99.90
67769;DHT22;54569;52.018;5.584;2023-12-22T09:40:58;8.80;99.90
67769;DHT22;54569;52.018;5.584;2023-12-22T09:43:24;8.70;99.90
67769;DHT22;54569;52.018;5.584;2023-12-22T09:45:50;8.70;99.90
67769;DHT22;54569;52.018;5.584;2023-12-22T09:48:21;8.60;99.90
67769;DHT22;54569;52.018;5.584;2023-12-22T09:50:53;8.50;99.90
67769;DHT22;54569;52.018;5.584;2023-12-22T09:53:20;8.50;99.90
67769;DHT22;54569;52.018;5.584;2023-12-22T09:55:47;8.40;99.90
67769;DHT22;54569;52.018;5.584;2023-12-22T09:58:14;8.40;99.90
67769;DHT22;54569;52.018;5.584;2023-12-22T10:00:43;8.40;99.90
67769;DHT22;54569;52.018;5.584;2023-12-22T10:03:11;8.40;99.90
67769;DHT22;54569;52.018;5.584;2023-12-22T10:05:42;8.40;99.90
67769;DHT22;54569;52.018;5.584;2023-12-22T10:08:09;8.50;99.90
67769;DHT22;54569;52.018;5.584;2023-12-22T10:10:41;8.60;99.90
67769;DHT22;54569;52.018;5.584;2023-12-22T10:13:08;8.60;99.90
67769;DHT22;54569;52.018;5.584;2023-12-22T10:15:45;8.80;99.90
67769;DHT22;54569;52.018;5.584;2023-12-22T10:18:12;8.90;99.90
67769;DHT22;54569;52.018;5.584;2023-12-22T10:20:39;9.00;99.90
67769;DHT22;54569;52.018;5.584;2023-12-22T10:23:05;9.10;99.90
67769;DHT22;54569;52.018;5.584;2023-12-22T10:25:31;9.20;99.90
67769;DHT22;54569;52.018;5.584;2023-12-22T10:27:58;9.30;99.90
67769;DHT22;54569;52.018;5.584;2023-12-22T10:30:24;9.40;99.90
67769;DHT22;54569;52.018;5.584;2023-12-22T10:32:51;9.40;99.90
67769;DHT22;54569;52.018;5.584;2023-12-22T10:35:17;9.50;99.90
67769;DHT22;54569;52.018;5.584;2023-12-22T10:37:45;9.50;99.90
67769;DHT22;54569;52.018;5.584;2023-12-22T10:40:11;9.60;99.90
67769;DHT22;54569;52.018;5.584;2023-12-22T10:42:37;9.60;99.90
67769;DHT22;54569;52.018;5.584;2023-12-22T10:45:06;9.70;99.90
67769;DHT22;54569;52.018;5.584;2023-12-22T10:47:32;9.70;99.90
67769;DHT22;54569;52.018;5.584;2023-12-22T10:50:02;9.80;99.90
67769;DHT22;54569;52.018;5.584;2023-12-22T10:52:29;9.80;99.90
67769;DHT22;54569;52.018;5.584;2023-12-22T10:54:57;9.90;99.90
67769;DHT22;54569;52.018;5.584;2023-12-22T10:57:23;9.90;99.90
67769;DHT22;54569;52.018;5.584;2023-12-22T10:59:51;10.00;99.90
67769;DHT22;54569;52.018;5.584;2023-12-22T11:02:18;10.00;99.90
67769;DHT22;54569;52.018;5.584;2023-12-22T11:07:23;10.10;99.90
67769;DHT22;54569;52.018;5.584;2023-12-22T11:09:51;10.10;99.90
67769;DHT22;54569;52.018;5.584;2023-12-22T11:12:19;10.10;99.90
67769;DHT22;54569;52.018;5.584;2023-12-22T11:14:46;10.10;99.90
67769;DHT22;54569;52.018;5.584;2023-12-22T11:17:19;10.10;99.90
67769;DHT22;54569;52.018;5.584;2023-12-22T11:22:44;10.10;99.90
67769;DHT22;54569;52.018;5.584;2023-12-22T11:25:10;10.20;99.90
67769;DHT22;54569;52.018;5.584;2023-12-22T11:27:37;10.20;99.90
67769;DHT22;54569;52.018;5.584;2023-12-22T11:30:05;10.20;99.90
67769;DHT22;54569;52.018;5.584;2023-12-22T11:32:34;10.20;99.90
67769;DHT22;54569;52.018;5.584;2023-12-22T11:35:00;10.20;99.90
67769;DHT22;54569;52.018;5.584;2023-12-22T11:37:31;10.10;99.90
67769;DHT22;54569;52.018;5.584;2023-12-22T11:39:58;10.10;99.90
67769;DHT22;54569;52.018;5.584;2023-12-22T11:42:33;10.10;99.90
67769;DHT22;54569;52.018;5.584;2023-12-22T11:45:03;10.10;99.90
67769;DHT22;54569;52.018;5.584;2023-12-22T11:47:29;10.10;99.90
67769;DHT22;54569;52.018;5.584;2023-12-22T11:49:55;10.20;99.90
67769;DHT22;54569;52.018;5.584;2023-12-22T11:52:27;10.20;99.90
67769;DHT22;54569;52.018;5.584;2023-12-22T11:54:54;10.20;99.90
67769;DHT22;54569;52.018;5.584;2023-12-22T11:57:30;10.30;99.90
67769;DHT22;54569;52.018;5.584;2023-12-22T12:00:37;10.30;99.90
67769;DHT22;54569;52.018;5.584;2023-12-22T12:02:57;10.30;99.90
67769;DHT22;54569;52.018;5.584;2023-12-22T12:05:23;10.40;99.90
67769;DHT22;54569;52.018;5.584;2023-12-22T12:07:49;10.40;99.90
67769;DHT22;54569;52.018;5.584;2023-12-22T12:13:08;10.50;99.90
67769;DHT22;54569;52.018;5.584;2023-12-22T12:15:37;10.50;99.90
67769;DHT22;54569;52.018;5.584;2023-12-22T12:18:04;10.50;99.90
67769;DHT22;54569;52.018;5.584;2023-12-22T12:20:32;10.50;99.90
67769;DHT22;54569;52.018;5.584;2023-12-22T12:22:58;10.50;99.90
67769;DHT22;54569;52.018;5.584;2023-12-22T12:25:28;10.50;99.90
67769;DHT22;54569;52.018;5.584;2023-12-22T12:28:04;10.50;99.90
67769;DHT22;54569;52.018;5.584;2023-12-22T12:30:31;10.60;99.90
67769;DHT22;54569;52.018;5.584;2023-12-22T12:32:59;10.50;99.90
67769;DHT22;54569;52.018;5.584;2023-12-22T12:35:29;10.50;99.90
67769;DHT22;54569;52.018;5.584;2023-12-22T12:37:58;10.60;99.90
67769;DHT22;54569;52.018;5.584;2023-12-22T12:40:28;10.60;99.90
67769;DHT22;54569;52.018;5.584;2023-12-22T12:42:58;10.60;99.90
67769;DHT22;54569;52.018;5.584;2023-12-22T12:45:25;10.70;99.90
67769;DHT22;54569;52.018;5.584;2023-12-22T12:48:03;10.70;99.90
67769;DHT22;54569;52.018;5.584;2023-12-22T12:50:29;10.80;99.90
67769;DHT22;54569;52.018;5.584;2023-12-22T12:53:00;10.80;99.90
67769;DHT22;54569;52.018;5.584;2023-12-22T12:55:26;10.80;99.90
67769;DHT22;54569;52.018;5.584;2023-12-22T12:57:53;10.70;99.90
67769;DHT22;54569;52.018;5.584;2023-12-22T13:00:32;10.70;99.90
67769;DHT22;54569;52.018;5.584;2023-12-22T13:03:04;10.70;99.90
67769;DHT22;54569;52.018;5.584;2023-12-22T13:05:30;10.60;99.90
67769;DHT22;54569;52.018;5.584;2023-12-22T13:08:15;10.70;99.90
67769;DHT22;54569;52.018;5.584;2023-12-22T13:10:41;10.70;99.90
67769;DHT22;54569;52.018;5.584;2023-12-22T13:13:07;10.80;99.90
67769;DHT22;54569;52.018;5.584;2023-12-22T13:15:33;10.80;99.90
67769;DHT22;54569;52.018;5.584;2023-12-22T13:17:59;10.80;99.90
67769;DHT22;54569;52.018;5.584;2023-12-22T13:20:25;10.80;99.90
67769;DHT22;54569;52.018;5.584;2023-12-22T13:22:51;10.80;99.90
67769;DHT22;54569;52.018;5.584;2023-12-22T13:25:17;10.80;99.90
67769;DHT22;54569;52.018;5.584;2023-12-22T13:27:47;10.80;99.90
67769;DHT22;54569;52.018;5.584;2023-12-22T13:30:14;10.80;99.90
67769;DHT22;54569;52.018;5.584;2023-12-22T13:32:40;10.80;99.90
67769;DHT22;54569;52.018;5.584;2023-12-22T13:35:06;10.80;99.90
67769;DHT22;54569;52.018;5.584;2023-12-22T13:37:32;10.80;99.90
67769;DHT22;54569;52.018;5.584;2023-12-22T13:39:58;10.80;99.90
67769;DHT22;54569;52.018;5.584;2023-12-22T13:42:24;10.80;99.90
67769;DHT22;54569;52.018;5.584;2023-12-22T13:44:50;10.80;99.90
67769;DHT22;54569;52.018;5.584;2023-12-22T13:47:21;10.80;99.90
67769;DHT22;54569;52.018;5.584;2023-12-22T13:49:48;10.90;99.90
67769;DHT22;54569;52.018;5.584;2023-12-22T13:52:32;10.90;99.90
67769;DHT22;54569;52.018;5.584;2023-12-22T13:55:12;10.90;99.90
67769;DHT22;54569;52.018;5.584;2023-12-22T13:57:38;10.90;99.90
67769;DHT22;54569;52.018;5.584;2023-12-22T14:00:25;10.90;99.90
67769;DHT22;54569;52.018;5.584;2023-12-22T14:02:54;10.90;99.90
67769;DHT22;54569;52.018;5.584;2023-12-22T14:05:20;10.90;99.90
67769;DHT22;54569;52.018;5.584;2023-12-22T14:07:50;10.90;99.90
67769;DHT22;54569;52.018;5.584;2023-12-22T14:10:16;10.90;99.90
67769;DHT22;54569;52.018;5.584;2023-12-22T14:12:42;10.90;99.90
67769;DHT22;54569;52.018;5.584;2023-12-22T14:15:12;10.90;99.90
67769;DHT22;54569;52.018;5.584;2023-12-22T14:17:38;10.90;99.90
67769;DHT22;54569;52.018;5.584;2023-12-22T14:20:08;10.90;99.90
67769;DHT22;54569;52.018;5.584;2023-12-22T14:22:37;10.80;99.90
67769;DHT22;54569;52.018;5.584;2023-12-22T14:25:03;10.80;99.90
67769;DHT22;54569;52.018;5.584;2023-12-22T14:27:29;10.80;99.90
67769;DHT22;54569;52.018;5.584;2023-12-22T14:29:55;10.90;99.90
67769;DHT22;54569;52.018;5.584;2023-12-22T14:32:21;10.90;99.90
67769;DHT22;54569;52.018;5.584;2023-12-22T14:34:48;10.90;99.90
67769;DHT22;54569;52.018;5.584;2023-12-22T14:37:13;10.90;99.90
67769;DHT22;54569;52.018;5.584;2023-12-22T14:39:39;10.90;99.90
67769;DHT22;54569;52.018;5.584;2023-12-22T14:42:05;10.90;99.90
67769;DHT22;54569;52.018;5.584;2023-12-22T14:44:31;10.90;99.90
67769;DHT22;54569;52.018;5.584;2023-12-22T14:46:57;10.80;99.90
67769;DHT22;54569;52.018;5.584;2023-12-22T14:49:22;10.80;99.90
67769;DHT22;54569;52.018;5.584;2023-12-22T14:51:48;10.80;99.90
67769;DHT22;54569;52.018;5.584;2023-12-22T14:54:19;10.80;99.90
67769;DHT22;54569;52.018;5.584;2023-12-22T14:56:46;10.70;99.90
67769;DHT22;54569;52.018;5.584;2023-12-22T14:59:12;10.70;99.90
67769;DHT22;54569;52.018;5.584;2023-12-22T15:01:42;10.60;99.90
67769;DHT22;54569;52.018;5.584;2023-12-22T15:04:08;10.70;99.90
67769;DHT22;54569;52.018;5.584;2023-12-22T15:06:41;10.60;99.90
67769;DHT22;54569;52.018;5.584;2023-12-22T15:09:09;10.60;99.90
67769;DHT22;54569;52.018;5.584;2023-12-22T15:11:45;10.50;99.90
67769;DHT22;54569;52.018;5.584;2023-12-22T15:14:11;10.50;99.90
67769;DHT22;54569;52.018;5.584;2023-12-22T15:16:41;10.40;99.90
67769;DHT22;54569;52.018;5.584;2023-12-22T15:19:07;10.50;99.90
67769;DHT22;54569;52.018;5.584;2023-12-22T15:21:32;10.40;99.90
67769;DHT22;54569;52.018;5.584;2023-12-22T16:04:46;9.90;99.90
67769;DHT22;54569;52.018;5.584;2023-12-22T16:07:12;9.90;99.90
67769;DHT22;54569;52.018;5.584;2023-12-22T16:09:37;9.90;99.90
67769;DHT22;54569;52.018;5.584;2023-12-22T16:12:03;9.80;99.90
67769;DHT22;54569;52.018;5.584;2023-12-22T16:14:33;9.90;99.90
67769;DHT22;54569;52.018;5.584;2023-12-22T16:16:59;9.90;99.90
67769;DHT22;54569;52.018;5.584;2023-12-22T16:19:25;9.90;99.90
67769;DHT22;54569;52.018;5.584;2023-12-22T16:21:51;9.90;99.90
67769;DHT22;54569;52.018;5.584;2023-12-22T16:24:21;10.00;99.90
67769;DHT22;54569;52.018;5.584;2023-12-22T16:26:47;10.00;99.90
67769;DHT22;54569;52.018;5.584;2023-12-22T16:29:13;10.00;99.90
67769;DHT22;54569;52.018;5.584;2023-12-22T16:31:40;10.00;99.90
67769;DHT22;54569;52.018;5.584;2023-12-22T16:34:06;10.00;99.90
67769;DHT22;54569;52.018;5.584;2023-12-22T16:36:32;10.10;99.90